createdAt,value
2023-12-30T00:04:04.798Z,23.00
2023-12-30T00:11:07.018Z,23.50
2023-12-30T00:18:08.533Z,23.67
2023-12-30T00:25:11.365Z,25.25
2023-12-30T00:32:12.872Z,22.83
2023-12-30T00:39:14.339Z,23.33
2023-12-30T00:46:15.936Z,23.10
2023-12-30T00:53:17.376Z,25.77
2023-12-30T01:00:19.047Z,22.20
2023-12-30T01:07:20.528Z,22.75
2023-12-30T01:14:22.012Z,24.17
2023-12-30T01:21:23.413Z,25.55
2023-12-30T01:28:24.843Z,27.55
2023-12-30T01:35:26.253Z,26.95
2023-12-30T01:42:27.663Z,28.92
2023-12-30T01:49:29.557Z,29.23
2023-12-30T01:56:31.070Z,31.55
2023-12-30T02:03:33.348Z,33.13
2023-12-30T02:10:34.909Z,34.95
2023-12-30T02:17:36.461Z,33.70
2023-12-30T02:24:38.003Z,32.40
2023-12-30T02:31:47.559Z,27.55
2023-12-30T02:38:49.294Z,26.30
2023-12-30T02:45:51.447Z,25.45
2023-12-30T02:52:52.891Z,24.45
2023-12-30T02:59:54.288Z,24.40
2023-12-30T03:06:55.806Z,24.42
2023-12-30T03:13:57.248Z,24.30
2023-12-30T03:20:58.834Z,24.67
2023-12-30T03:28:00.309Z,23.92
2023-12-30T03:35:01.795Z,25.55
2023-12-30T03:42:03.320Z,25.63
2023-12-30T03:49:04.948Z,24.88
2023-12-30T03:56:06.760Z,24.55
2023-12-30T04:03:09.661Z,25.45
2023-12-30T04:10:13.782Z,26.58
2023-12-30T04:17:15.227Z,31.88
2023-12-30T04:24:18.816Z,34.60
2023-12-30T04:31:20.250Z,25.17
2023-12-30T04:38:26.765Z,26.90
2023-12-30T04:45:28.212Z,24.67
2023-12-30T04:52:43.479Z,26.42
2023-12-30T04:59:45.574Z,28.33
2023-12-30T05:40:21.887Z,19.38
2023-12-30T05:47:23.372Z,19.02
2023-12-30T05:54:26.543Z,18.38
2023-12-30T06:01:28.074Z,16.60
2023-12-30T06:16:51.725Z,18.35
2023-12-30T06:32:14.832Z,17.65
2023-12-30T06:39:20.077Z,14.82
2023-12-30T06:46:21.779Z,18.45
2023-12-30T06:53:23.260Z,19.15
2023-12-30T07:00:24.721Z,20.65
2023-12-30T07:07:26.402Z,20.88
2023-12-30T07:14:29.767Z,23.45
2023-12-30T07:21:31.220Z,22.13
2023-12-30T07:28:33.000Z,18.90
2023-12-30T07:35:34.459Z,19.75
2023-12-30T07:42:36.471Z,21.55
2023-12-30T07:49:38.096Z,23.30
2023-12-30T07:56:39.947Z,20.45
2023-12-30T08:03:41.442Z,20.65
2023-12-30T08:10:46.010Z,19.70
2023-12-30T08:17:47.536Z,20.55
2023-12-30T08:24:51.091Z,21.75
2023-12-30T08:31:52.573Z,22.10
2023-12-30T08:38:54.059Z,26.08
2023-12-30T08:45:55.565Z,24.00
2023-12-30T08:52:57.026Z,23.38
2023-12-30T08:59:58.457Z,19.42
2023-12-30T09:06:59.894Z,20.30
2023-12-30T09:14:01.310Z,19.85
2023-12-30T09:21:02.774Z,21.08
2023-12-30T09:28:04.591Z,22.17
2023-12-30T09:35:06.808Z,23.83
2023-12-30T09:42:08.335Z,24.65
2023-12-30T09:49:16.399Z,23.45
2023-12-30T09:56:19.630Z,22.33
2023-12-30T10:03:23.010Z,22.27
2023-12-30T10:10:48.261Z,22.40
2023-12-30T10:17:50.443Z,24.80
2023-12-30T10:24:51.952Z,24.38
2023-12-30T10:32:02.052Z,25.25
2023-12-30T10:39:05.484Z,27.33
2023-12-30T10:46:13.590Z,28.90
2023-12-30T10:53:29.670Z,28.58
2023-12-30T11:00:36.646Z,26.65
2023-12-30T11:07:41.773Z,30.27
2023-12-30T11:14:43.271Z,29.38
2023-12-30T11:21:47.791Z,29.15
2023-12-30T11:28:49.419Z,30.10
2023-12-30T11:35:55.259Z,29.80
2023-12-30T11:42:57.513Z,30.60
2023-12-30T11:50:09.253Z,26.50
2023-12-30T11:57:13.778Z,25.42
2023-12-30T12:04:15.564Z,27.02
2023-12-30T12:11:17.689Z,27.63
2023-12-30T12:18:20.372Z,26.33
2023-12-30T12:25:24.085Z,28.73
2023-12-30T12:32:26.048Z,25.33
2023-12-30T12:39:27.576Z,27.10
2023-12-30T12:46:29.134Z,29.05
2023-12-30T12:53:31.606Z,29.52
2023-12-30T13:00:33.152Z,34.15
2023-12-30T13:07:36.035Z,27.00
2023-12-30T13:14:37.558Z,28.05
2023-12-30T13:21:39.007Z,28.67
2023-12-30T13:28:40.502Z,29.30
2023-12-30T13:35:44.000Z,43.10
2023-12-30T13:42:46.491Z,38.08
2023-12-30T13:50:06.201Z,33.47
2023-12-30T13:57:14.333Z,34.65
2023-12-30T14:04:20.374Z,35.45
2023-12-30T14:11:32.305Z,34.95
2023-12-30T14:18:33.865Z,36.22
2023-12-30T14:25:53.790Z,35.88
2023-12-30T14:32:56.045Z,36.20
2023-12-30T14:41:14.637Z,36.20
2023-12-30T14:48:16.376Z,37.15
2023-12-30T14:55:18.789Z,36.78
2023-12-30T15:02:20.944Z,34.65
2023-12-30T15:09:22.756Z,34.63
2023-12-30T15:16:26.545Z,32.88
2023-12-30T15:31:51.264Z,33.67
2023-12-30T15:38:52.886Z,36.83
2023-12-30T15:45:54.429Z,37.30
2023-12-30T15:52:56.135Z,38.78
2023-12-30T15:59:57.576Z,35.72
2023-12-30T16:06:59.128Z,37.33
2023-12-30T16:22:28.308Z,38.85
2023-12-30T16:29:29.760Z,43.15
2023-12-30T16:44:54.024Z,42.78
2023-12-30T16:52:20.490Z,43.65
2023-12-30T16:59:22.035Z,43.40
2023-12-30T17:06:23.860Z,35.92
2023-12-30T17:13:34.778Z,29.98
2023-12-30T17:20:41.018Z,28.63
2023-12-30T17:27:42.761Z,30.95
2023-12-30T17:34:44.211Z,30.63
2023-12-30T17:41:45.845Z,32.83
2023-12-30T17:48:47.373Z,35.15
2023-12-30T17:55:49.360Z,30.77
2023-12-30T18:02:51.473Z,30.60
2023-12-30T18:09:52.987Z,35.38
2023-12-30T18:16:54.395Z,33.20
2023-12-30T18:24:14.992Z,31.10
2023-12-30T18:31:16.511Z,34.80
2023-12-30T18:38:20.371Z,32.00
2023-12-30T18:45:21.800Z,31.50
2023-12-30T19:00:45.720Z,38.75
2023-12-30T19:07:47.637Z,41.80
2023-12-30T19:14:49.195Z,39.85
2023-12-30T19:21:54.708Z,42.75
2023-12-30T19:28:56.133Z,42.50
2023-12-30T19:44:20.306Z,41.25
2023-12-30T19:51:22.441Z,44.83
2023-12-30T20:06:50.196Z,38.35
2023-12-30T20:13:54.694Z,34.95
2023-12-30T20:20:58.565Z,38.78
2023-12-30T20:28:00.660Z,40.00
2023-12-30T20:35:02.356Z,39.97
2023-12-30T20:42:05.165Z,40.42
2023-12-30T20:49:09.562Z,39.30
2023-12-30T21:04:55.850Z,38.03
2023-12-30T21:11:57.631Z,38.42
2023-12-30T21:19:00.822Z,38.78
2023-12-30T21:26:04.080Z,40.53
2023-12-30T21:33:11.723Z,41.08
2023-12-30T21:40:14.840Z,43.00
2023-12-30T21:47:16.396Z,41.95
2023-12-30T21:54:17.942Z,46.83
2023-12-30T22:01:19.550Z,48.35
2023-12-30T22:08:26.147Z,51.20
2023-12-30T22:15:28.578Z,52.28
2023-12-30T22:22:30.047Z,55.88
2023-12-30T22:29:31.569Z,60.75
2023-12-30T22:44:55.512Z,69.68
2023-12-30T22:51:56.960Z,73.65
2023-12-30T22:58:58.391Z,69.88
2023-12-30T23:06:00.009Z,64.65
2023-12-30T23:13:20.106Z,59.40
2023-12-30T23:20:22.466Z,50.80
2023-12-30T23:27:25.183Z,45.58
2023-12-30T23:34:38.812Z,43.33
2023-12-30T23:41:46.856Z,43.08
2023-12-30T23:48:48.376Z,42.88
2023-12-30T23:55:50.859Z,45.65
